Time;durP1;ratioP1;P1;durP2;ratioP2;P2;SDS_P1;SDS_P2;PMS_P1;PMS_P2;Temp;Humidity;BMP_temperature;BMP_pressure;BME280_temperature;BME280_humidity;BME280_pressure;Samples;Min_cycle;Max_cycle;Signal;HPM_P1;HPM_P2
2024/02/02 00:01:14;;;;;;;14.77;4.00;;;;;;;7.05;58.98;101112.84;4988236;28;97753;-76
2024/02/02 00:03:39;;;;;;;15.85;3.80;;;;;;;6.95;58.73;101091.16;4983216;28;97593;-74
2024/02/02 00:06:05;;;;;;;16.02;3.50;;;;;;;7.04;58.80;101106.78;4972046;28;96762;-73
2024/02/02 00:08:30;;;;;;;20.25;4.97;;;;;;;6.87;58.95;101099.06;5009159;28;96734;-73
2024/02/02 00:10:56;;;;;;;18.33;3.65;;;;;;;7.01;58.77;101119.81;4975098;28;98028;-77
2024/02/02 00:13:21;;;;;;;14.45;3.85;;;;;;;7.01;59.25;101119.81;4980985;28;97387;-76
2024/02/02 00:15:47;;;;;;;17.15;4.05;;;;;;;6.76;59.95;101093.88;4972337;28;97659;-75
2024/02/02 00:18:12;;;;;;;12.85;3.50;;;;;;;6.98;59.80;101130.28;4971962;28;97093;-76
2024/02/02 00:20:38;;;;;;;14.40;3.30;;;;;;;7.09;59.51;101122.38;4968005;28;100555;-76
2024/02/02 00:23:03;;;;;;;26.90;5.22;;;;;;;7.03;59.27;101107.63;4961324;28;101328;-76
2024/02/02 00:25:29;;;;;;;19.75;3.67;;;;;;;7.00;59.71;101121.56;4974863;28;96771;-76
2024/02/02 00:27:54;;;;;;;22.30;4.70;;;;;;;7.02;59.76;101125.03;5010766;28;96755;-76
2024/02/02 00:30:20;;;;;;;15.50;3.90;;;;;;;6.95;60.01;101135.53;4961513;28;101370;-75
2024/02/02 00:32:45;;;;;;;19.35;3.83;;;;;;;7.00;60.12;101136.38;4995745;28;97667;-73
2024/02/02 00:35:12;;;;;;;19.27;3.97;;;;;;;7.09;59.65;101125.00;4980223;28;97346;-75
2024/02/02 00:37:38;;;;;;;21.92;4.05;;;;;;;7.10;59.51;101111.94;4980029;28;97145;-74
2024/02/02 00:40:05;;;;;;;17.48;3.97;;;;;;;7.09;59.83;101115.41;4976311;28;101500;-74
2024/02/02 00:42:30;;;;;;;17.00;4.03;;;;;;;7.18;59.81;101120.56;4978543;28;100900;-73
2024/02/02 00:44:57;;;;;;;11.45;3.65;;;;;;;7.15;59.71;101123.22;4969929;28;97097;-73
2024/02/02 00:47:23;;;;;;;23.25;4.95;;;;;;;7.07;60.18;101131.97;4992063;28;96864;-73
2024/02/02 00:49:48;;;;;;;22.08;3.92;;;;;;;7.11;59.74;101120.66;4969426;28;99372;-73
2024/02/02 00:52:13;;;;;;;14.63;3.97;;;;;;;7.09;59.96;101110.19;4982457;28;97892;-75
2024/02/02 00:54:39;;;;;;;17.88;3.88;;;;;;;7.26;59.79;101121.38;4968933;28;96815;-74
2024/02/02 00:57:05;;;;;;;16.02;4.20;;;;;;;7.25;59.53;101100.53;4988317;28;96843;-76
2024/02/02 00:59:30;;;;;;;18.13;3.97;;;;;;;7.25;59.46;101110.97;4976359;28;101327;-76
2024/02/02 01:01:56;;;;;;;27.17;4.63;;;;;;;7.20;59.87;101121.44;4953878;28;100726;-77
2024/02/02 01:04:22;;;;;;;18.40;4.05;;;;;;;7.16;59.68;101111.91;4956856;28;96873;-76
2024/02/02 01:06:47;;;;;;;17.95;4.68;;;;;;;7.03;59.80;101087.59;4959283;28;97418;-76
2024/02/02 01:09:13;;;;;;;18.23;4.45;;;;;;;7.14;59.80;101116.25;4997792;28;97533;-76
2024/02/02 01:11:38;;;;;;;21.38;4.65;;;;;;;7.16;60.00;101111.03;4989402;28;97359;-76
2024/02/02 01:14:04;;;;;;;16.80;5.00;;;;;;;7.20;59.88;101134.50;4985706;28;96713;-76
2024/02/02 01:16:29;;;;;;;19.13;4.55;;;;;;;7.14;59.82;101125.84;4994603;28;96940;-76
2024/02/02 01:18:54;;;;;;;23.92;4.63;;;;;;;7.10;59.93;101104.13;4968379;28;101234;-75
2024/02/02 01:21:20;;;;;;;28.02;6.50;;;;;;;7.20;60.16;101126.66;4966107;28;101495;-76
2024/02/02 01:23:45;;;;;;;11.70;3.22;;;;;;;7.11;59.76;101104.97;4967219;28;98227;-75
2024/02/02 01:26:11;;;;;;;21.42;4.00;;;;;;;7.17;60.22;101131.03;4977457;28;97347;-77
2024/02/02 01:28:36;;;;;;;13.20;4.50;;;;;;;7.18;59.74;101117.09;4977613;28;97652;-77
2024/02/02 01:31:02;;;;;;;12.38;4.13;;;;;;;7.03;60.33;101110.25;4982605;28;101362;-76
2024/02/02 01:33:27;;;;;;;14.82;4.00;;;;;;;7.05;60.58;101111.09;4993250;28;97133;-76
2024/02/02 01:35:53;;;;;;;17.88;4.32;;;;;;;6.91;60.48;101115.56;4993283;28;97219;-76
2024/02/02 01:38:18;;;;;;;21.38;3.97;;;;;;;7.11;60.19;101115.44;4968018;28;100473;-76
2024/02/02 01:40:44;;;;;;;15.85;4.85;;;;;;;7.07;60.43;101118.91;4943702;28;101365;-75
2024/02/02 01:43:09;;;;;;;24.20;5.70;;;;;;;7.07;60.03;101125.03;4984730;28;96806;-76
2024/02/02 01:45:36;;;;;;;20.25;4.35;;;;;;;7.05;60.28;101126.78;4983194;28;97034;-76
2024/02/02 01:48:02;;;;;;;12.48;2.97;;;;;;;7.10;60.04;101135.44;5000681;28;97388;-76
2024/02/02 01:50:28;;;;;;;12.98;3.63;;;;;;;7.07;60.11;101132.84;4988572;28;98173;-76
2024/02/02 01:52:53;;;;;;;15.50;4.13;;;;;;;7.09;60.45;101131.09;4984591;28;96988;-76
2024/02/02 01:55:19;;;;;;;20.60;4.80;;;;;;;7.15;59.49;101135.41;4991874;28;97346;-76
2024/02/02 01:57:45;;;;;;;12.23;4.13;;;;;;;7.06;60.19;101130.25;4980775;28;97389;-76
2024/02/02 02:00:11;;;;;;;21.95;5.18;;;;;;;6.92;59.83;101126.00;4974960;28;97868;-76
2024/02/02 02:02:37;;;;;;;17.40;4.25;;;;;;;6.90;59.98;101113.84;4959926;28;96866;-76
2024/02/02 02:05:03;;;;;;;24.00;5.75;;;;;;;7.03;60.34;101141.56;4994650;28;97481;-76
2024/02/02 02:07:29;;;;;;;25.98;7.32;;;;;;;7.00;59.98;101129.41;4964930;28;97638;-76
2024/02/02 02:09:54;;;;;;;28.35;6.95;;;;;;;7.03;60.05;101138.97;4977329;28;97997;-75
2024/02/02 02:12:20;;;;;;;28.48;6.00;;;;;;;6.86;60.44;101133.84;4979647;28;96984;-76
2024/02/02 02:14:45;;;;;;;29.25;7.18;;;;;;;6.62;60.48;101093.09;4981872;28;97215;-75
2024/02/02 02:17:11;;;;;;;30.77;6.78;;;;;;;6.72;60.50;101102.63;4981526;28;98009;-76
2024/02/02 02:19:37;;;;;;;20.90;4.47;;;;;;;6.86;60.48;101133.84;4984604;28;97531;-76
2024/02/02 02:22:03;;;;;;;22.80;6.72;;;;;;;6.81;60.75;101133.03;4985559;28;96760;-76
2024/02/02 02:24:29;;;;;;;27.95;7.72;;;;;;;6.87;60.15;101126.91;4968942;28;96886;-75
2024/02/02 02:26:54;;;;;;;22.55;5.68;;;;;;;6.92;60.70;101139.06;4979052;28;97421;-76
2024/02/02 02:29:20;;;;;;;25.67;5.32;;;;;;;6.87;60.39;101140.81;4994673;28;97447;-76
2024/02/02 02:31:54;;;;;;;26.75;5.30;;;;;;;6.86;60.66;101141.66;4958744;28;96734;-75
2024/02/02 02:34:27;;;;;;;23.50;7.03;;;;;;;6.85;60.35;101142.56;4950694;28;96834;-76
2024/02/02 02:36:53;;;;;;;27.83;6.22;;;;;;;6.89;60.50;101143.41;4996046;28;97559;-76
2024/02/02 02:39:19;;;;;;;19.50;5.05;;;;;;;7.00;59.88;101141.59;4965839;28;101177;-77
2024/02/02 02:41:45;;;;;;;19.25;5.18;;;;;;;6.93;60.27;101137.31;4989349;28;96790;-75
2024/02/02 02:44:12;;;;;;;30.98;6.03;;;;;;;6.92;60.08;101146.00;4970559;28;97089;-76
2024/02/02 02:46:39;;;;;;;17.85;4.65;;;;;;;6.80;59.99;101123.44;4981982;28;101274;-76
2024/02/02 02:49:05;;;;;;;21.83;5.47;;;;;;;6.94;59.65;101141.63;4980250;28;97704;-76
2024/02/02 02:51:30;;;;;;;20.95;5.15;;;;;;;6.80;60.29;101141.72;4965395;28;96746;-76
2024/02/02 02:53:56;;;;;;;19.83;4.22;;;;;;;6.68;60.08;101121.75;4957388;28;97089;-75
2024/02/02 02:56:21;;;;;;;17.50;5.05;;;;;;;6.73;59.90;101125.22;4970296;28;101311;-76
2024/02/02 02:58:46;;;;;;;25.35;5.00;;;;;;;6.80;60.44;101155.63;4985915;28;101389;-77
2024/02/02 03:01:12;;;;;;;23.33;5.13;;;;;;;6.87;60.08;101147.78;4979123;28;97182;-76
2024/02/02 03:03:37;;;;;;;13.32;3.90;;;;;;;6.84;59.72;101150.41;4957469;28;97238;-76
2024/02/02 03:06:03;;;;;;;17.50;4.35;;;;;;;6.90;60.07;101155.59;4980646;28;98600;-76
2024/02/02 03:08:28;;;;;;;21.85;4.57;;;;;;;6.92;59.77;101146.88;5010572;28;98109;-75
2024/02/02 03:10:54;;;;;;;22.90;4.65;;;;;;;6.96;59.44;101148.59;4963426;28;96726;-76
2024/02/02 03:13:20;;;;;;;18.73;4.32;;;;;;;6.83;59.72;101131.25;5010503;28;97122;-76
2024/02/02 03:15:45;;;;;;;18.50;3.92;;;;;;;6.94;59.50;101155.53;4989743;28;97407;-75
2024/02/02 03:18:12;;;;;;;21.67;4.78;;;;;;;6.97;59.40;101162.50;4990275;28;100431;-76
2024/02/02 03:20:38;;;;;;;18.90;5.15;;;;;;;6.91;59.37;101134.69;4983100;28;97175;-76
2024/02/02 03:23:03;;;;;;;16.55;3.75;;;;;;;6.99;59.13;101159.00;4997294;28;97119;-76
2024/02/02 03:25:29;;;;;;;12.85;4.40;;;;;;;6.95;59.25;101162.53;4981468;28;97403;-76
2024/02/02 03:27:54;;;;;;;15.13;3.55;;;;;;;6.98;59.26;101159.00;4994760;28;98162;-76
2024/02/02 03:30:20;;;;;;;21.25;4.10;;;;;;;6.90;58.99;101145.16;4975290;28;98480;-76
2024/02/02 03:32:45;;;;;;;20.15;4.10;;;;;;;7.07;59.09;101174.63;4992288;28;96772;-75
2024/02/02 03:35:11;;;;;;;22.50;4.57;;;;;;;7.16;58.62;101171.09;4973944;28;98144;-76
2024/02/02 03:37:37;;;;;;;12.85;3.42;;;;;;;7.17;58.41;101176.28;4957884;28;100766;-77
2024/02/02 03:40:04;;;;;;;16.95;3.85;;;;;;;7.18;58.28;101178.03;4977057;28;97293;-76
2024/02/02 03:42:29;;;;;;;21.48;3.22;;;;;;;7.12;58.91;101183.28;4989895;28;96798;-76
2024/02/02 03:44:56;;;;;;;20.27;4.40;;;;;;;7.20;58.61;101191.06;4980876;28;97842;-76
2024/02/02 03:47:21;;;;;;;19.13;5.18;;;;;;;7.04;58.45;101174.66;4970716;28;98031;-76
2024/02/02 03:49:47;;;;;;;16.63;4.88;;;;;;;7.05;58.50;101168.53;4984613;28;97042;-77
2024/02/02 03:52:12;;;;;;;20.02;4.38;;;;;;;7.02;58.51;101198.16;4986487;28;97111;-76
2024/02/02 03:54:38;;;;;;;11.35;3.47;;;;;;;6.94;58.74;101175.56;4965393;28;97979;-76
2024/02/02 03:57:03;;;;;;;13.57;3.42;;;;;;;7.12;58.13;101204.16;4974497;28;97483;-76
2024/02/02 03:59:29;;;;;;;15.98;3.72;;;;;;;6.91;58.34;101173.84;4972767;28;96767;-75
2024/02/02 04:01:54;;;;;;;16.02;3.63;;;;;;;7.10;58.65;101202.44;5004346;28;96839;-76
2024/02/02 04:04:20;;;;;;;16.00;3.70;;;;;;;7.07;58.35;101205.97;4966008;28;97550;-76
2024/02/02 04:06:46;;;;;;;24.15;5.03;;;;;;;6.93;58.45;101186.91;4971320;28;101466;-75
2024/02/02 04:09:12;;;;;;;19.00;3.95;;;;;;;7.04;58.44;101203.38;4965662;28;97095;-76
2024/02/02 04:11:37;;;;;;;17.25;3.65;;;;;;;7.00;58.46;101196.41;4996174;28;97331;-76
2024/02/02 04:14:03;;;;;;;17.77;3.50;;;;;;;7.07;58.50;101210.28;4985414;28;98201;-76
2024/02/02 04:16:29;;;;;;;15.52;3.47;;;;;;;6.86;58.85;101200.84;4960578;28;97394;-76
2024/02/02 04:18:54;;;;;;;19.27;4.47;;;;;;;6.86;58.74;101196.47;4986409;28;96768;-75
2024/02/02 04:21:20;;;;;;;14.50;3.88;;;;;;;6.94;58.80;101192.09;4999929;28;96691;-76
2024/02/02 04:23:45;;;;;;;18.25;4.57;;;;;;;6.97;58.65;101196.44;4975065;28;101163;-76
2024/02/02 04:26:11;;;;;;;20.27;4.40;;;;;;;6.75;58.90;101169.59;4954010;28;101140;-76
2024/02/02 04:28:37;;;;;;;17.65;3.75;;;;;;;7.09;58.82;101204.19;4961987;28;97087;-76
2024/02/02 04:31:03;;;;;;;14.98;3.88;;;;;;;7.07;58.71;101210.28;4995381;28;97269;-76
2024/02/02 04:33:28;;;;;;;19.33;3.70;;;;;;;7.03;58.79;101218.16;4963562;28;100638;-73
2024/02/02 04:35:54;;;;;;;20.63;6.18;;;;;;;7.07;58.65;101205.97;4952530;28;101062;-73
2024/02/02 04:38:19;;;;;;;16.10;4.15;;;;;;;7.15;58.60;101214.59;4982560;28;97150;-73
2024/02/02 04:40:45;;;;;;;19.63;4.60;;;;;;;7.15;58.61;101211.97;4959712;28;96883;-73
2024/02/02 04:43:11;;;;;;;17.98;4.35;;;;;;;6.95;58.69;101193.84;4971785;28;97440;-73
2024/02/02 04:45:36;;;;;;;13.18;3.58;;;;;;;7.01;58.81;101217.31;4966853;28;101339;-73
2024/02/02 04:48:03;;;;;;;22.92;3.97;;;;;;;7.03;58.97;101220.75;4985024;28;97534;-73
2024/02/02 04:50:30;;;;;;;23.63;4.20;;;;;;;6.80;58.84;101176.50;4987933;28;96837;-73
2024/02/02 04:52:55;;;;;;;22.40;4.78;;;;;;;7.02;58.88;101229.47;4968788;28;98533;-73
2024/02/02 04:55:21;;;;;;;19.42;3.92;;;;;;;7.05;58.74;101223.38;5000179;28;97629;-75
2024/02/02 04:57:46;;;;;;;13.30;3.55;;;;;;;7.08;58.76;101231.19;4972500;28;96885;-76
2024/02/02 05:00:13;;;;;;;19.92;4.45;;;;;;;7.05;58.72;101227.72;4988758;28;97373;-76
2024/02/02 05:02:38;;;;;;;25.23;5.10;;;;;;;7.06;58.96;101234.69;4958778;28;101362;-76
2024/02/02 05:05:07;;;;;;;21.02;3.88;;;;;;;7.14;58.67;101238.97;4991620;28;101304;-76
2024/02/02 05:07:34;;;;;;;16.83;4.25;;;;;;;7.17;58.46;101241.56;4985050;28;97836;-77
2024/02/02 05:10:00;;;;;;;17.55;3.35;;;;;;;7.18;58.44;101238.06;4982582;28;97303;-76
2024/02/02 05:12:27;;;;;;;19.35;4.85;;;;;;;7.03;58.62;101231.19;5007849;28;97355;-76
2024/02/02 05:14:52;;;;;;;16.98;3.50;;;;;;;7.07;58.94;101239.00;4971484;28;101313;-77
2024/02/02 05:17:18;;;;;;;17.52;4.18;;;;;;;7.10;58.72;101228.56;4960172;28;97148;-76
2024/02/02 05:19:43;;;;;;;24.38;5.18;;;;;;;7.11;58.66;101227.69;5005034;28;97143;-76
2024/02/02 05:22:09;;;;;;;21.85;4.57;;;;;;;6.95;59.00;101224.28;4965215;28;100728;-77
2024/02/02 05:24:34;;;;;;;18.88;4.30;;;;;;;6.87;59.13;101215.63;4994547;28;97738;-76
2024/02/02 05:27:00;;;;;;;16.33;4.20;;;;;;;6.83;59.29;101219.13;4968638;28;97688;-79
2024/02/02 05:29:25;;;;;;;27.13;5.70;;;;;;;6.83;59.17;101213.91;4973133;28;97047;-76
2024/02/02 05:31:51;;;;;;;17.98;4.00;;;;;;;6.78;59.15;101209.59;4989365;28;97783;-79
2024/02/02 05:34:16;;;;;;;21.17;4.78;;;;;;;6.92;59.03;101233.03;5001362;28;97934;-77
2024/02/02 05:36:42;;;;;;;16.83;4.75;;;;;;;7.00;58.92;101246.00;4975175;28;96819;-78
2024/02/02 05:39:09;;;;;;;20.75;4.28;;;;;;;7.06;58.90;101243.38;4993000;28;97075;-78
2024/02/02 05:41:34;;;;;;;21.52;4.68;;;;;;;7.10;58.62;101233.78;4969883;28;99566;-76
2024/02/02 05:44:00;;;;;;;22.92;4.40;;;;;;;7.11;58.65;101233.78;5011006;28;97386;-76
2024/02/02 05:46:25;;;;;;;22.30;5.43;;;;;;;6.90;58.60;101200.81;4968859;28;96927;-76
2024/02/02 05:48:51;;;;;;;22.13;4.97;;;;;;;6.97;58.85;101220.78;4987614;28;97153;-76
2024/02/02 05:51:16;;;;;;;24.58;5.25;;;;;;;6.84;58.90;101205.22;4974413;28;97729;-78
2024/02/02 05:53:42;;;;;;;21.48;4.65;;;;;;;6.94;59.01;101219.94;4976408;28;100748;-76
2024/02/02 05:56:07;;;;;;;20.10;4.68;;;;;;;6.92;59.31;101234.72;4961177;28;97337;-76
2024/02/02 05:58:33;;;;;;;19.15;4.80;;;;;;;6.67;59.56;101231.38;4994945;28;96974;-76
2024/02/02 06:00:58;;;;;;;19.05;4.30;;;;;;;6.68;59.27;101212.22;4985601;28;97395;-76
2024/02/02 06:03:24;;;;;;;16.95;4.13;;;;;;;6.62;59.54;101214.84;4974238;28;97966;-83
2024/02/02 06:05:49;;;;;;;21.55;4.95;;;;;;;6.77;59.63;101238.28;4991381;28;96907;-74
2024/02/02 06:08:15;;;;;;;23.27;5.72;;;;;;;6.80;59.54;101248.69;4975418;28;96969;-78
2024/02/02 06:10:41;;;;;;;23.08;5.70;;;;;;;6.74;59.68;101243.50;4975941;28;98414;-78
2024/02/02 06:13:09;;;;;;;20.17;4.43;;;;;;;6.55;59.94;101217.50;4991764;28;97829;-76
2024/02/02 06:15:35;;;;;;;18.30;4.03;;;;;;;6.86;59.27;101243.47;4987627;28;96732;-77
2024/02/02 06:18:00;;;;;;;18.13;4.55;;;;;;;6.88;59.48;101244.31;4973028;28;97035;-76
2024/02/02 06:20:26;;;;;;;20.15;5.10;;;;;;;6.89;59.24;101258.25;4967109;28;101490;-76
2024/02/02 06:22:51;;;;;;;15.50;4.82;;;;;;;6.90;59.19;101249.56;4962094;28;97423;-76
2024/02/02 06:25:17;;;;;;;18.33;4.60;;;;;;;6.92;59.33;101261.72;4963668;28;96751;-76
2024/02/02 06:27:43;;;;;;;23.73;5.25;;;;;;;6.86;58.94;101232.16;4982927;28;97105;-75
2024/02/02 06:30:09;;;;;;;24.10;4.85;;;;;;;6.95;59.16;101256.50;4985954;28;98006;-76
2024/02/02 06:32:40;;;;;;;18.45;4.85;;;;;;;6.73;59.41;101232.22;5007902;28;97460;-76
2024/02/02 06:35:06;;;;;;;20.73;4.75;;;;;;;6.85;59.59;101254.78;4995063;28;96832;-76
2024/02/02 06:37:31;;;;;;;23.52;4.85;;;;;;;6.87;59.81;101260.00;4976644;28;96814;-75
2024/02/02 06:39:57;;;;;;;23.80;5.55;;;;;;;6.87;59.85;101255.66;4988111;28;97874;-74
2024/02/02 06:42:26;;;;;;;22.55;5.97;;;;;;;6.95;59.69;101260.81;4982115;28;99695;-75
2024/02/02 06:44:54;;;;;;;19.40;4.70;;;;;;;6.99;59.91;101273.00;5004459;28;96961;-83
2024/02/02 06:47:20;;;;;;;18.85;4.05;;;;;;;6.81;60.23;101245.25;4978343;28;96849;-82
2024/02/02 06:49:46;;;;;;;22.90;5.30;;;;;;;6.88;60.14;101269.56;4998784;28;97506;-82
2024/02/02 06:52:13;;;;;;;17.20;4.82;;;;;;;6.85;60.18;101260.00;4964560;28;100801;-83
2024/02/02 06:54:39;;;;;;;23.40;4.88;;;;;;;6.85;60.59;101273.06;4982581;28;97521;-83
2024/02/02 06:57:04;;;;;;;17.52;4.97;;;;;;;6.99;60.13;101268.66;4980729;28;96842;-83
2024/02/02 06:59:30;;;;;;;16.73;5.47;;;;;;;7.06;59.94;101269.47;4972159;28;101347;-80
2024/02/02 07:01:56;;;;;;;18.35;3.88;;;;;;;7.08;59.92;101267.75;4950449;28;101291;-80
2024/02/02 07:04:22;;;;;;;26.95;6.00;;;;;;;7.06;60.20;101266.88;4966421;28;96889;-81
2024/02/02 07:06:48;;;;;;;22.40;5.40;;;;;;;6.84;60.67;101237.41;4977166;28;98697;-81
2024/02/02 07:09:32;;;;;;;20.77;4.32;;;;;;;6.96;60.66;101262.56;4993014;28;99416;-83
2024/02/02 07:12:00;;;;;;;19.52;4.97;;;;;;;7.05;60.77;101261.66;4959679;28;101130;-83
2024/02/02 07:14:28;;;;;;;22.63;6.05;;;;;;;6.88;60.95;101266.97;4972961;28;98764;-81
2024/02/02 07:16:54;;;;;;;24.60;6.57;;;;;;;6.82;61.11;101252.19;5002882;28;98010;-80
2024/02/02 07:19:36;;;;;;;19.52;5.90;;;;;;;6.84;60.97;101270.47;4976656;28;100794;-73
2024/02/02 07:22:04;;;;;;;16.48;6.13;;;;;;;6.89;60.75;101268.69;4983683;28;97388;-72
2024/02/02 07:24:29;;;;;;;22.25;5.90;;;;;;;6.85;60.96;101244.34;4963290;28;98211;-75
2024/02/02 07:26:54;;;;;;;24.90;6.53;;;;;;;6.84;60.88;101241.75;4978902;28;98500;-74
2024/02/02 07:29:37;;;;;;;27.52;7.45;;;;;;;6.92;61.34;101272.16;4976742;28;97694;-74
2024/02/02 07:32:05;;;;;;;19.92;6.47;;;;;;;6.92;61.19;101268.66;4966069;28;102055;-81
2024/02/02 07:34:44;;;;;;;23.30;6.32;;;;;;;6.97;61.11;101280.81;4966819;28;96792;-81
2024/02/02 07:37:35;;;;;;;22.42;6.25;;;;;;;7.02;60.99;101273.84;4950218;28;96803;-81
2024/02/02 07:40:03;;;;;;;32.10;7.53;;;;;;;7.07;61.32;101280.78;4998486;28;97838;-76
2024/02/02 07:42:29;;;;;;;19.63;5.90;;;;;;;6.99;60.97;101275.63;4983106;28;99384;-75
2024/02/02 07:44:54;;;;;;;22.05;6.80;;;;;;;7.07;60.95;101272.94;5002252;28;97021;-75
2024/02/02 07:47:20;;;;;;;31.33;7.75;;;;;;;7.02;61.41;101284.28;5004775;28;97250;-75
2024/02/02 07:49:45;;;;;;;21.95;6.22;;;;;;;7.10;60.84;101260.78;5003458;28;97983;-75
2024/02/02 07:52:11;;;;;;;27.00;8.23;;;;;;;7.21;60.45;101279.88;4986965;28;97356;-76
2024/02/02 07:54:36;;;;;;;30.77;7.10;;;;;;;7.06;60.96;101272.09;4975081;28;96829;-75
2024/02/02 07:57:02;;;;;;;17.27;5.93;;;;;;;6.96;61.33;101250.38;4975038;28;96813;-75
2024/02/02 07:59:27;;;;;;;20.73;5.80;;;;;;;7.23;60.63;101270.25;4966728;28;98420;-75
2024/02/02 08:01:53;;;;;;;27.67;7.00;;;;;;;7.36;60.42;101271.09;4982825;28;97922;-75
2024/02/02 08:04:18;;;;;;;21.13;6.22;;;;;;;7.25;60.78;101262.44;5003131;28;96832;-75
2024/02/02 08:06:44;;;;;;;22.35;6.07;;;;;;;7.32;60.84;101274.56;4984337;28;96837;-76
2024/02/02 08:09:10;;;;;;;19.88;5.82;;;;;;;7.19;60.98;101271.16;5001525;28;97786;-77
2024/02/02 08:11:35;;;;;;;24.70;5.35;;;;;;;7.23;61.10;101275.50;4949034;28;100749;-74
2024/02/02 08:14:01;;;;;;;23.17;6.18;;;;;;;7.13;61.11;101246.84;4986418;28;96824;-73
2024/02/02 08:16:27;;;;;;;23.58;5.68;;;;;;;7.32;60.51;101258.03;4972051;28;96875;-77
2024/02/02 08:18:53;;;;;;;25.40;6.63;;;;;;;7.20;60.60;101253.75;4971298;28;97546;-74
2024/02/02 08:21:21;;;;;;;19.42;6.40;;;;;;;7.18;60.52;101240.69;4985323;28;97388;-76
2024/02/02 08:23:46;;;;;;;20.67;5.88;;;;;;;7.30;60.45;101268.50;5006825;28;98966;-76
2024/02/02 08:26:12;;;;;;;21.75;5.75;;;;;;;7.31;60.18;101235.41;4992079;28;96883;-75
2024/02/02 08:28:39;;;;;;;19.83;6.60;;;;;;;7.33;59.66;101226.69;4970187;28;101025;-75
2024/02/02 08:31:05;;;;;;;18.92;4.90;;;;;;;7.22;59.88;101225.91;4976578;28;97696;-75
2024/02/02 08:33:30;;;;;;;31.02;7.40;;;;;;;7.57;59.94;101269.22;4992706;28;96976;-76
2024/02/02 08:35:56;;;;;;;16.10;5.13;;;;;;;7.51;59.71;101253.59;4973390;28;97103;-74
2024/02/02 08:38:22;;;;;;;24.23;5.40;;;;;;;7.69;59.71;101259.53;4975031;28;99577;-75
2024/02/02 08:40:49;;;;;;;21.02;5.88;;;;;;;7.64;59.69;101245.63;4964741;28;101174;-77
2024/02/02 08:43:19;;;;;;;21.50;5.80;;;;;;;7.69;59.31;101241.25;4978237;28;97305;-78
2024/02/02 08:46:10;;;;;;;30.85;6.72;;;;;;;7.56;59.07;101225.66;4976733;28;97589;-76
2024/02/02 08:48:37;;;;;;;23.43;5.97;;;;;;;7.81;59.31;101255.09;4977354;28;101286;-76
2024/02/02 08:51:20;;;;;;;24.23;6.03;;;;;;;7.84;58.82;101249.84;4959456;28;98290;-78
2024/02/02 08:53:46;;;;;;;28.73;5.53;;;;;;;7.93;58.30;101255.00;4976317;28;97227;-77
2024/02/02 08:56:12;;;;;;;21.80;5.13;;;;;;;8.13;57.84;101246.97;4975469;28;97724;-78
2024/02/02 08:58:38;;;;;;;21.85;5.38;;;;;;;8.07;58.13;101244.44;4977979;28;97899;-78
2024/02/02 09:01:04;;;;;;;34.97;5.88;;;;;;;8.04;57.35;101208.72;4973087;28;97847;-77
2024/02/02 09:03:46;;;;;;;16.35;6.00;;;;;;;8.48;57.14;101238.81;4996088;28;97489;-76
2024/02/02 09:06:21;;;;;;;25.15;7.55;;;;;;;8.84;55.95;101227.06;4972504;28;98852;-79
2024/02/02 09:08:47;;;;;;;20.73;5.60;;;;;;;9.12;55.58;101226.69;4974942;28;101143;-76
2024/02/02 09:11:22;;;;;;;22.35;5.13;;;;;;;9.38;54.26;101230.69;4958131;28;97655;-77
2024/02/02 09:13:57;;;;;;;19.02;5.05;;;;;;;9.70;53.85;101230.19;4965889;28;97745;-77
2024/02/02 09:16:24;;;;;;;27.95;5.28;;;;;;;9.96;53.32;101216.66;4963879;28;97616;-77
2024/02/02 09:18:54;;;;;;;14.90;4.53;;;;;;;10.01;52.58;101191.22;4976938;28;97608;-75
2024/02/02 09:21:27;;;;;;;26.25;5.95;;;;;;;9.98;52.83;101218.38;4979123;28;97903;-76
2024/02/02 09:23:52;;;;;;;22.50;4.88;;;;;;;9.73;52.56;101203.94;4979063;28;97420;-77
2024/02/02 09:26:30;;;;;;;15.07;4.68;;;;;;;9.80;53.19;101216.03;4977980;28;98015;-72
2024/02/02 09:28:58;;;;;;;23.77;4.82;;;;;;;9.97;52.60;101208.75;4954380;28;99165;-75
2024/02/02 09:31:25;;;;;;;16.60;4.55;;;;;;;10.96;51.06;101210.38;4955465;28;101580;-74
2024/02/02 09:33:52;;;;;;;19.77;5.80;;;;;;;11.33;50.00;101199.03;4977672;28;98095;-79
2024/02/02 09:36:22;;;;;;;15.82;4.15;;;;;;;12.13;48.82;101211.13;4960623;28;98394;-74
2024/02/02 09:38:55;;;;;;;22.52;5.65;;;;;;;12.29;47.76;101208.94;4974891;28;97470;-83
2024/02/02 09:41:48;;;;;;;15.13;4.65;;;;;;;12.86;46.69;101208.22;4978925;28;97891;-77
2024/02/02 09:44:37;;;;;;;12.35;4.07;;;;;;;14.40;55.69;101167.13;5000604;28;98433;-78
2024/02/02 09:47:22;;;;;;;22.00;5.07;;;;;;;15.11;46.34;101182.97;4956770;28;97525;-80
2024/02/02 09:50:09;;;;;;;17.42;4.75;;;;;;;14.01;44.57;101193.16;4976200;28;99696;-78
2024/02/02 09:53:08;;;;;;;23.13;4.20;;;;;;;13.06;44.73;101185.66;4972952;28;98017;-78
2024/02/02 09:55:57;;;;;;;17.67;4.55;;;;;;;12.19;46.60;101166.22;4954456;28;97306;-78
2024/02/02 09:58:33;;;;;;;17.42;5.28;;;;;;;12.16;47.02;101184.72;4959954;28;98168;-80
2024/02/02 10:01:09;;;;;;;20.05;4.88;;;;;;;12.44;46.46;101208.50;4972487;28;97657;-79
2024/02/02 10:03:56;;;;;;;17.20;4.55;;;;;;;11.75;47.09;101202.41;4971626;28;97364;-81
2024/02/02 10:06:45;;;;;;;21.95;4.80;;;;;;;11.71;47.66;101197.25;4981254;28;98094;-81
2024/02/02 10:09:23;;;;;;;16.38;4.40;;;;;;;11.76;48.71;101195.38;4987092;28;98104;-81
2024/02/02 10:11:51;;;;;;;18.10;4.07;;;;;;;12.10;47.78;101184.00;4974256;28;97521;-81
2024/02/02 10:14:39;;;;;;;19.67;4.53;;;;;;;12.22;47.36;101192.44;4995845;28;97962;-82
2024/02/02 10:17:32;;;;;;;17.73;4.63;;;;;;;12.03;47.91;101187.72;4994932;28;96824;-81
2024/02/02 10:20:07;;;;;;;18.05;4.07;;;;;;;11.39;47.45;101150.72;4976857;28;98550;-81
2024/02/02 10:22:39;;;;;;;25.08;6.00;;;;;;;11.31;48.20;101180.69;4976283;28;99270;-81
2024/02/02 10:25:26;;;;;;;22.10;4.97;;;;;;;11.52;48.00;101160.91;4972261;28;101531;-80
2024/02/02 10:28:16;;;;;;;25.55;5.30;;;;;;;11.40;48.42;101162.94;4976159;28;97911;-80
2024/02/02 10:30:56;;;;;;;16.50;4.88;;;;;;;11.26;48.34;101161.53;4998020;28;98603;-81
2024/02/02 10:33:57;;;;;;;19.75;5.28;;;;;;;11.42;48.20;101163.78;4975937;28;97954;-80
2024/02/02 10:36:28;;;;;;;19.77;4.60;;;;;;;11.55;47.97;101163.47;4974268;28;98859;-80
2024/02/02 10:39:15;;;;;;;25.85;5.63;;;;;;;11.54;47.76;101155.59;4973592;28;98290;-80
2024/02/02 10:41:44;;;;;;;22.48;4.78;;;;;;;11.27;47.89;101149.25;4978285;28;97300;-80
2024/02/02 10:44:19;;;;;;;15.68;4.90;;;;;;;11.00;48.34;101116.59;4975118;28;101199;-79
2024/02/02 10:47:15;;;;;;;19.38;4.43;;;;;;;10.89;48.75;101132.59;4975322;28;98653;-80
2024/02/02 10:50:04;;;;;;;16.20;4.22;;;;;;;10.89;48.77;101140.47;4974309;28;98009;-79
2024/02/02 10:52:58;;;;;;;19.15;4.80;;;;;;;10.82;48.84;101131.00;4979854;28;98012;-79
2024/02/02 10:55:24;;;;;;;24.15;4.88;;;;;;;10.51;49.75;101131.66;4963357;28;98310;-80
2024/02/02 10:58:05;;;;;;;18.15;4.38;;;;;;;10.26;50.71;101127.78;4990309;28;97993;-80
2024/02/02 11:00:42;;;;;;;15.80;5.17;;;;;;;10.11;50.81;101119.31;4989637;28;97329;-80
2024/02/02 11:03:33;;;;;;;15.93;4.32;;;;;;;9.99;51.24;101103.81;4973183;28;97595;-80
2024/02/02 11:06:22;;;;;;;16.50;4.72;;;;;;;10.12;50.71;101121.06;4989753;28;97623;-80
2024/02/02 11:09:23;;;;;;;19.63;4.25;;;;;;;10.01;51.31;101130.03;4994098;28;98015;-80
2024/02/02 11:12:08;;;;;;;16.67;4.85;;;;;;;9.97;51.22;101108.22;4940391;28;97484;-78
2024/02/02 11:14:39;;;;;;;11.98;3.97;;;;;;;9.97;51.41;101116.09;4995044;28;97381;-82
2024/02/02 11:18:09;;;;;;;21.67;4.75;;;;;;;9.80;51.16;101086.69;4949265;28;99181;-81
2024/02/02 11:20:57;;;;;;;16.05;4.50;;;;;;;9.61;51.39;101079.16;4929181;28;97891;-80
2024/02/02 11:23:41;;;;;;;19.08;4.65;;;;;;;9.55;52.00;101071.41;4991408;28;98411;-80
2024/02/02 11:26:16;;;;;;;18.13;4.00;;;;;;;9.65;51.37;101079.97;4964950;28;96828;-79
2024/02/02 11:28:58;;;;;;;16.02;5.20;;;;;;;9.84;51.56;101102.34;4986007;28;97752;-80
2024/02/02 11:31:28;;;;;;;21.42;5.03;;;;;;;9.70;51.69;101070.28;4981121;28;101508;-79